Time;durP1;ratioP1;P1;durP2;ratioP2;P2;SDS_P1;SDS_P2;PMS_P1;PMS_P2;Temp;Humidity;BMP_temperature;BMP_pressure;BME280_temperature;BME280_humidity;BME280_pressure;Samples;Min_cycle;Max_cycle;Signal;HPM_P1;HPM_P2
2021/06/19 00:02:10;;;;;;;8.23;7.47;;;;;;;23.50;65.15;97675.53;5102246;27;20250;-52
2021/06/19 00:04:37;;;;;;;8.18;7.47;;;;;;;23.93;64.17;97689.03;5102222;27;20930;-54
2021/06/19 00:07:05;;;;;;;8.18;7.57;;;;;;;24.26;62.44;97687.44;5102742;27;20240;-55
2021/06/19 00:09:32;;;;;;;8.02;7.32;;;;;;;23.93;64.35;97681.91;5101924;28;20212;-50
2021/06/19 00:11:59;;;;;;;8.57;7.88;;;;;;;24.20;62.82;97680.91;5101330;28;20236;-52
2021/06/19 00:14:25;;;;;;;9.00;8.20;;;;;;;24.15;62.37;97682.38;5104331;27;20228;-52
2021/06/19 00:16:53;;;;;;;8.18;7.50;;;;;;;24.57;61.95;97693.13;5101513;27;20797;-52
2021/06/19 00:19:20;;;;;;;7.97;7.28;;;;;;;24.13;62.56;97687.03;5102083;28;20219;-52
2021/06/19 00:21:47;;;;;;;7.82;7.22;;;;;;;24.48;61.39;97687.91;5101703;27;20243;-55
2021/06/19 00:24:18;;;;;;;8.18;7.57;;;;;;;24.03;62.48;97690.63;5101866;27;20219;-53
2021/06/19 00:26:45;;;;;;;7.82;7.22;;;;;;;24.07;62.42;97698.31;5101805;27;20232;-52
2021/06/19 00:29:11;;;;;;;8.05;7.35;;;;;;;23.73;63.88;97699.00;5102127;28;20620;-49
2021/06/19 00:31:38;;;;;;;7.97;7.40;;;;;;;23.40;64.83;97704.88;5101925;27;20243;-54
2021/06/19 00:34:05;;;;;;;7.57;6.97;;;;;;;23.95;63.59;97703.91;5102242;28;20310;-51
2021/06/19 00:36:32;;;;;;;8.43;7.60;;;;;;;23.98;63.26;97694.75;5102175;27;20244;-50
2021/06/19 00:38:58;;;;;;;7.57;6.97;;;;;;;24.17;62.87;97694.56;5101790;28;20212;-54
2021/06/19 00:41:26;;;;;;;7.90;7.20;;;;;;;23.90;63.03;97692.03;5101030;27;20232;-52
2021/06/19 00:43:53;;;;;;;7.85;7.30;;;;;;;24.20;62.92;97691.56;5102467;27;20230;-53
2021/06/19 00:46:19;;;;;;;8.90;8.02;;;;;;;23.48;64.25;97706.78;5102625;27;20232;-52
2021/06/19 00:48:46;;;;;;;8.27;7.57;;;;;;;23.31;65.97;97704.97;5102177;27;20216;-54
2021/06/19 00:51:14;;;;;;;8.10;7.40;;;;;;;23.18;66.29;97711.47;5101104;28;20238;-53
2021/06/19 00:53:40;;;;;;;7.75;7.05;;;;;;;23.08;66.30;97711.50;5101113;28;20216;-53
2021/06/19 00:56:07;;;;;;;7.70;7.10;;;;;;;23.29;66.12;97715.75;5101185;28;20243;-50
2021/06/19 00:58:34;;;;;;;8.15;7.45;;;;;;;23.93;63.94;97716.53;5101635;28;20223;-49
2021/06/19 01:01:00;;;;;;;7.97;7.28;;;;;;;23.37;64.90;97715.81;5101890;27;20846;-54
2021/06/19 01:03:27;;;;;;;8.38;7.68;;;;;;;23.11;66.13;97723.69;5101148;27;20211;-52
2021/06/19 01:05:54;;;;;;;8.05;7.45;;;;;;;23.09;66.06;97723.84;5100330;28;20224;-52
2021/06/19 01:08:22;;;;;;;8.40;7.70;;;;;;;23.55;64.41;97728.31;5101988;28;20216;-52
2021/06/19 01:10:48;;;;;;;8.85;8.02;;;;;;;23.51;64.76;97724.25;5100697;28;20240;-50
2021/06/19 01:13:15;;;;;;;8.82;7.97;;;;;;;23.16;66.09;97725.88;5103878;27;20247;-54
2021/06/19 01:15:41;;;;;;;8.68;7.97;;;;;;;23.61;64.80;97722.38;5102937;27;20243;-53
2021/06/19 01:18:08;;;;;;;10.48;9.50;;;;;;;22.10;68.57;97726.91;5101134;28;20220;-55
2021/06/19 01:20:36;;;;;;;12.00;10.32;;;;;;;20.71;75.12;97717.22;5100786;27;20239;-51
2021/06/19 01:23:03;;;;;;;11.18;10.20;;;;;;;20.77;75.71;97727.31;5100426;28;20208;-55
2021/06/19 01:25:33;;;;;;;10.40;9.50;;;;;;;21.69;71.89;97728.91;5100641;27;20239;-53
2021/06/19 01:28:00;;;;;;;11.63;10.63;;;;;;;20.73;75.49;97727.69;5102949;27;20740;-54
2021/06/19 01:30:28;;;;;;;10.35;9.43;;;;;;;20.72;75.69;97726.88;5101441;27;20239;-54
2021/06/19 01:32:55;;;;;;;8.95;8.25;;;;;;;21.97;70.68;97723.72;5101283;27;20217;-49
2021/06/19 01:35:23;;;;;;;8.65;7.95;;;;;;;22.44;68.86;97734.44;5100323;27;20232;-55
2021/06/19 01:37:52;;;;;;;8.70;8.00;;;;;;;23.15;66.92;97733.03;5101301;27;20216;-53
2021/06/19 01:40:20;;;;;;;10.88;9.88;;;;;;;21.06;73.12;97731.03;5100025;27;20240;-55
2021/06/19 01:42:50;;;;;;;9.65;8.85;;;;;;;22.57;68.06;97735.94;5100395;27;20216;-52
2021/06/19 01:45:18;;;;;;;10.70;9.60;;;;;;;22.23;68.15;97734.59;5100204;28;20223;-50
2021/06/19 01:47:45;;;;;;;10.30;9.35;;;;;;;21.57;71.06;97740.63;5102324;27;20219;-55
2021/06/19 01:50:14;;;;;;;9.73;8.82;;;;;;;21.49;71.42;97729.88;5099506;28;20251;-52
2021/06/19 01:52:41;;;;;;;8.20;7.60;;;;;;;21.93;69.71;97732.97;5100404;28;20666;-53
2021/06/19 01:55:08;;;;;;;7.90;7.28;;;;;;;21.80;70.31;97753.63;5100439;28;20232;-51
2021/06/19 01:57:38;;;;;;;11.30;10.30;;;;;;;19.39;81.99;97742.34;5100679;28;20854;-54
2021/06/19 02:00:08;;;;;;;8.75;7.85;;;;;;;20.89;75.97;97770.44;5101639;28;20270;-54
2021/06/19 02:02:34;;;;;;;8.73;8.02;;;;;;;21.91;71.83;97772.09;5100937;28;20207;-53
2021/06/19 02:05:01;;;;;;;8.40;7.57;;;;;;;21.35;73.66;97763.75;5100123;28;20212;-52
2021/06/19 02:07:27;;;;;;;8.32;7.72;;;;;;;21.87;71.46;97762.72;5100268;28;20240;-52
2021/06/19 02:09:54;;;;;;;8.82;8.13;;;;;;;21.84;70.96;97771.81;5101806;28;20231;-55
2021/06/19 02:12:20;;;;;;;9.85;9.00;;;;;;;21.09;74.59;97762.56;5099270;28;20238;-54
2021/06/19 02:14:47;;;;;;;8.05;7.35;;;;;;;22.52;69.55;97761.13;5100021;28;20603;-52
2021/06/19 02:17:15;;;;;;;11.20;10.23;;;;;;;19.52;79.82;97759.84;5102974;28;20234;-54
2021/06/19 02:19:41;;;;;;;12.35;11.25;;;;;;;19.28;83.02;97750.31;5104396;28;20224;-50
2021/06/19 02:22:08;;;;;;;8.18;7.47;;;;;;;21.40;73.58;97749.25;5104713;27;20757;-55
2021/06/19 02:24:34;;;;;;;11.55;10.38;;;;;;;19.96;79.12;97752.72;5105498;27;20243;-52
2021/06/19 02:27:10;;;;;;;9.95;8.95;;;;;;;20.70;77.94;97752.66;5103844;28;20238;-54
2021/06/19 02:29:36;;;;;;;9.05;8.25;;;;;;;21.70;72.45;97753.63;5104775;27;20234;-53
2021/06/19 02:32:04;;;;;;;8.77;8.02;;;;;;;21.47;73.71;97755.72;5105309;27;20230;-55
2021/06/19 02:34:32;;;;;;;10.48;9.48;;;;;;;21.14;73.41;97765.66;5104197;27;20220;-52
2021/06/19 02:36:59;;;;;;;9.57;8.70;;;;;;;21.90;71.42;97763.28;5104668;27;21024;-52
2021/06/19 02:39:26;;;;;;;8.40;7.70;;;;;;;22.28;69.84;97750.16;5104731;27;20226;-53
2021/06/19 02:41:52;;;;;;;8.25;7.65;;;;;;;22.76;68.38;97748.34;5103490;27;20247;-55
2021/06/19 02:44:19;;;;;;;11.45;10.50;;;;;;;20.16;78.00;97762.53;5104633;27;20212;-49
2021/06/19 02:46:45;;;;;;;8.60;7.80;;;;;;;22.00;71.59;97752.66;5102613;27;20240;-54
2021/06/19 02:49:12;;;;;;;9.15;8.35;;;;;;;21.31;73.67;97748.25;5104355;28;20224;-52
2021/06/19 02:51:40;;;;;;;8.10;7.40;;;;;;;21.93;71.47;97746.25;5103271;27;20331;-55
2021/06/19 02:54:06;;;;;;;8.65;7.85;;;;;;;21.78;71.16;97751.13;5104747;27;20207;-52
2021/06/19 02:56:33;;;;;;;9.43;8.63;;;;;;;21.99;69.84;97750.97;5102793;28;20251;-54
2021/06/19 02:59:01;;;;;;;8.40;7.63;;;;;;;21.90;70.39;97765.09;5105443;27;20208;-52
2021/06/19 03:01:27;;;;;;;9.85;9.02;;;;;;;21.81;71.22;97772.06;5104774;27;20254;-52
2021/06/19 03:03:54;;;;;;;10.75;9.95;;;;;;;21.64;71.84;97770.97;5105077;27;20216;-55
2021/06/19 03:06:20;;;;;;;8.45;7.75;;;;;;;21.61;72.05;97784.50;5103676;28;20244;-55
2021/06/19 03:08:48;;;;;;;8.63;7.93;;;;;;;21.96;70.78;97788.44;5104884;27;20219;-51
2021/06/19 03:11:15;;;;;;;8.90;8.20;;;;;;;21.97;70.35;97784.81;5103421;27;20250;-52
2021/06/19 03:13:41;;;;;;;7.80;7.20;;;;;;;22.38;68.41;97788.16;5092847;28;20250;-51
2021/06/19 03:16:08;;;;;;;8.48;7.75;;;;;;;21.87;70.21;97798.09;5104736;27;20240;-52
2021/06/19 03:18:34;;;;;;;8.40;7.60;;;;;;;22.11;69.74;97792.34;5103835;27;20212;-54
2021/06/19 03:21:01;;;;;;;7.90;7.30;;;;;;;22.43;67.54;97791.22;5102803;28;20643;-53
2021/06/19 03:23:27;;;;;;;8.32;7.60;;;;;;;21.92;69.27;97792.34;5103502;27;20227;-53
2021/06/19 03:25:55;;;;;;;8.57;7.88;;;;;;;21.78;70.28;97800.72;5104493;27;20236;-54
2021/06/19 03:28:22;;;;;;;8.32;7.63;;;;;;;21.69;70.65;97797.94;5102409;28;20212;-52
2021/06/19 03:30:48;;;;;;;9.60;8.80;;;;;;;21.99;70.03;97800.59;5102863;27;20240;-54
2021/06/19 03:33:16;;;;;;;8.48;7.82;;;;;;;22.36;67.70;97798.09;5102456;27;20212;-54
2021/06/19 03:35:43;;;;;;;11.38;10.30;;;;;;;22.04;68.47;97785.94;5102915;27;20243;-52
2021/06/19 03:38:09;;;;;;;8.50;7.80;;;;;;;22.53;67.19;97785.88;5103471;28;20219;-55
2021/06/19 03:40:36;;;;;;;8.70;7.90;;;;;;;22.88;66.60;97787.88;5103715;27;20236;-52
2021/06/19 03:43:05;;;;;;;12.32;11.23;;;;;;;19.73;78.73;97783.75;5102989;27;20232;-54
2021/06/19 03:45:34;;;;;;;13.07;11.77;;;;;;;19.55;81.02;97786.06;5102993;27;20275;-54
2021/06/19 03:48:01;;;;;;;12.48;11.27;;;;;;;19.85;80.10;97788.06;5103079;27;20334;-51
2021/06/19 03:50:28;;;;;;;12.13;10.88;;;;;;;19.90;79.61;97790.31;5102776;27;20240;-52
2021/06/19 03:52:56;;;;;;;8.82;7.93;;;;;;;21.26;73.99;97790.25;5103775;27;20239;-53
2021/06/19 03:55:23;;;;;;;10.10;9.18;;;;;;;20.12;78.77;97784.91;5102643;28;20215;-51
2021/06/19 03:57:50;;;;;;;8.75;8.05;;;;;;;21.63;71.51;97787.84;5102738;28;20216;-55
2021/06/19 04:00:20;;;;;;;8.38;7.68;;;;;;;21.93;70.54;97802.00;5101804;27;20919;-54
2021/06/19 04:02:47;;;;;;;9.35;8.48;;;;;;;22.32;68.96;97802.00;5102554;28;20215;-54
2021/06/19 04:05:14;;;;;;;9.18;8.43;;;;;;;22.21;69.20;97797.66;5102250;27;20208;-53
2021/06/19 04:07:40;;;;;;;9.07;8.18;;;;;;;22.26;68.62;97799.94;5104559;27;20212;-53
2021/06/19 04:10:09;;;;;;;9.10;8.40;;;;;;;22.21;69.70;97808.28;5102904;27;20232;-51
2021/06/19 04:12:35;;;;;;;9.65;8.65;;;;;;;22.09;69.73;97817.34;5102159;27;20884;-51
2021/06/19 04:15:02;;;;;;;9.40;8.50;;;;;;;22.20;69.80;97824.34;5103042;27;20204;-52
2021/06/19 04:17:30;;;;;;;9.77;8.98;;;;;;;22.35;69.56;97828.31;5102179;27;20239;-53
2021/06/19 04:19:56;;;;;;;9.07;8.23;;;;;;;22.48;69.07;97833.31;5103080;27;20642;-54
2021/06/19 04:22:23;;;;;;;8.63;7.93;;;;;;;22.22;69.33;97835.66;5101641;28;20363;-55
2021/06/19 04:24:51;;;;;;;8.73;7.97;;;;;;;22.55;68.79;97838.88;5102391;28;20694;-52
2021/06/19 04:27:19;;;;;;;9.25;8.13;;;;;;;22.78;67.67;97842.91;5102203;27;20240;-55
2021/06/19 04:29:46;;;;;;;10.18;9.23;;;;;;;22.94;66.85;97838.78;5102066;28;20212;-52
2021/06/19 04:32:13;;;;;;;9.00;8.23;;;;;;;22.57;68.45;97845.75;5102133;27;20325;-51
2021/06/19 04:34:41;;;;;;;9.50;8.60;;;;;;;22.89;67.65;97853.38;5103708;27;20200;-51
2021/06/19 04:37:09;;;;;;;12.60;11.40;;;;;;;21.71;70.29;97858.84;5101537;27;20235;-52
2021/06/19 04:39:38;;;;;;;12.85;11.82;;;;;;;20.84;76.09;97859.31;5102754;27;20204;-54
2021/06/19 04:42:08;;;;;;;10.05;9.05;;;;;;;21.26;74.26;97860.06;5102015;27;20248;-54
2021/06/19 04:45:00;;;;;;;10.13;8.50;;;;;;;22.63;68.67;97854.97;5101945;28;20910;-52
2021/06/19 04:47:27;;;;;;;12.70;11.50;;;;;;;20.37;80.72;97846.44;5101506;27;20389;-51
2021/06/19 04:49:55;;;;;;;11.73;10.73;;;;;;;22.02;71.68;97848.09;5102850;27;20224;-54
2021/06/19 04:52:22;;;;;;;9.25;8.45;;;;;;;22.61;69.88;97870.25;5102917;27;21019;-51
2021/06/19 04:54:49;;;;;;;9.35;8.55;;;;;;;22.95;69.16;97865.25;5103039;27;20684;-53
2021/06/19 04:57:15;;;;;;;8.98;8.18;;;;;;;22.89;69.14;97858.69;5102504;27;20243;-54
2021/06/19 04:59:42;;;;;;;8.70;7.90;;;;;;;22.99;67.96;97871.13;5101360;28;20219;-52
2021/06/19 05:02:08;;;;;;;8.65;7.88;;;;;;;22.84;69.53;97874.22;5092092;28;20246;-51
2021/06/19 05:04:35;;;;;;;8.70;7.82;;;;;;;22.91;69.28;97872.66;5099472;27;20205;-55
2021/06/19 05:07:03;;;;;;;9.07;8.25;;;;;;;23.05;68.76;97886.56;5104760;27;20224;-52
2021/06/19 05:09:30;;;;;;;9.13;8.43;;;;;;;23.07;68.93;97885.41;5104578;28;20212;-52
2021/06/19 05:11:56;;;;;;;8.57;7.88;;;;;;;23.27;68.61;97885.34;5102663;28;20940;-53
2021/06/19 05:14:22;;;;;;;12.68;11.50;;;;;;;23.29;67.60;97894.84;5104318;28;20242;-54
2021/06/19 05:16:49;;;;;;;11.45;10.48;;;;;;;23.73;66.22;97891.56;5103460;27;20232;-51
2021/06/19 05:19:17;;;;;;;13.55;12.35;;;;;;;21.03;77.83;97890.41;5104124;28;20218;-52
2021/06/19 05:21:43;;;;;;;14.98;13.52;;;;;;;21.50;75.72;97882.81;5105196;27;20792;-51
2021/06/19 05:24:12;;;;;;;14.18;12.88;;;;;;;21.50;76.05;97873.00;5103182;28;20767;-54
2021/06/19 05:26:38;;;;;;;10.70;9.77;;;;;;;22.55;71.67;97878.75;5103448;27;20328;-54
2021/06/19 05:29:05;;;;;;;11.05;10.15;;;;;;;22.68;71.63;97873.97;5103845;28;20211;-51
2021/06/19 05:31:31;;;;;;;10.23;9.23;;;;;;;23.63;68.55;97875.63;5102943;28;20259;-55
2021/06/19 05:33:58;;;;;;;13.63;12.52;;;;;;;22.46;72.74;97880.44;5104026;27;20222;-54
2021/06/19 05:36:25;;;;;;;14.23;12.93;;;;;;;21.84;76.52;97874.53;5103886;27;20622;-53
2021/06/19 05:38:51;;;;;;;12.80;11.70;;;;;;;22.19;75.70;97862.53;5104705;27;20761;-55
2021/06/19 05:41:19;;;;;;;15.43;14.10;;;;;;;22.78;71.93;97861.50;5103091;27;20615;-51
2021/06/19 05:43:46;;;;;;;11.10;10.00;;;;;;;23.66;68.72;97864.69;5104123;28;20220;-53
2021/06/19 05:46:12;;;;;;;10.30;9.40;;;;;;;23.72;68.79;97873.91;5103295;28;20243;-51
2021/06/19 05:48:39;;;;;;;14.70;13.50;;;;;;;22.46;73.86;97872.47;5103692;28;20216;-55
2021/06/19 05:51:05;;;;;;;10.93;9.88;;;;;;;22.89;73.18;97882.63;5102800;28;20388;-55
2021/06/19 05:53:32;;;;;;;10.43;9.52;;;;;;;23.77;68.25;97873.47;5103215;28;20690;-53
2021/06/19 05:55:58;;;;;;;10.50;9.60;;;;;;;23.95;68.62;97879.69;5103438;28;20318;-54
2021/06/19 05:58:26;;;;;;;11.70;10.60;;;;;;;23.95;68.11;97882.38;5105565;28;20216;-54
2021/06/19 06:00:53;;;;;;;10.38;9.55;;;;;;;23.98;68.02;97889.22;5103673;28;20232;-55
2021/06/19 06:03:19;;;;;;;10.57;9.65;;;;;;;23.75;69.40;97894.94;5103726;28;20212;-50
2021/06/19 06:05:46;;;;;;;9.85;8.90;;;;;;;23.76;70.16;97893.09;5103194;28;20228;-53
2021/06/19 06:08:12;;;;;;;10.35;9.43;;;;;;;23.73;69.89;97901.38;5104345;28;20215;-52
2021/06/19 06:10:40;;;;;;;10.40;9.50;;;;;;;23.76;69.40;97901.91;5103516;28;20236;-54
2021/06/19 06:13:07;;;;;;;10.63;9.70;;;;;;;23.90;68.91;97902.44;5103479;28;20216;-55
2021/06/19 06:15:35;;;;;;;10.48;9.50;;;;;;;24.15;66.84;97903.53;5103735;28;20238;-53
2021/06/19 06:18:01;;;;;;;10.57;9.68;;;;;;;23.94;68.03;97909.97;5103193;28;20611;-51
2021/06/19 06:20:28;;;;;;;10.73;9.80;;;;;;;23.90;68.52;97913.09;5103129;28;20236;-54
2021/06/19 06:22:54;;;;;;;10.85;10.00;;;;;;;24.05;68.07;97911.59;5105544;28;20788;-52
2021/06/19 06:25:21;;;;;;;10.98;9.98;;;;;;;24.12;67.76;97919.84;5103667;28;20215;-55
2021/06/19 06:27:47;;;;;;;10.52;9.57;;;;;;;24.03;67.34;97919.72;5103408;28;20208;-52
2021/06/19 06:30:15;;;;;;;11.30;10.40;;;;;;;24.19;67.25;97912.91;5103125;28;20242;-51
2021/06/19 06:32:43;;;;;;;11.50;10.40;;;;;;;24.19;66.84;97918.25;5102623;28;20595;-52
2021/06/19 06:35:10;;;;;;;13.32;9.82;;;;;;;24.26;66.65;97924.63;5103291;28;20223;-53
2021/06/19 06:37:37;;;;;;;11.98;10.77;;;;;;;24.59;65.22;97914.28;5105290;28;20243;-54
2021/06/19 06:40:05;;;;;;;12.05;10.98;;;;;;;24.69;64.86;97915.06;5103344;27;20240;-54
2021/06/19 06:42:32;;;;;;;10.85;9.95;;;;;;;24.55;66.72;97918.25;5102347;28;20220;-52
2021/06/19 06:44:58;;;;;;;13.48;12.35;;;;;;;24.65;65.93;97926.16;5102948;28;20584;-53
2021/06/19 06:47:25;;;;;;;12.18;11.13;;;;;;;24.75;66.00;97918.94;5103025;28;20238;-54
2021/06/19 06:49:53;;;;;;;11.63;10.55;;;;;;;24.67;66.20;97922.38;5101596;28;20681;-53
2021/06/19 06:52:19;;;;;;;11.98;10.98;;;;;;;24.67;66.59;97922.38;5102394;28;20232;-54
2021/06/19 06:54:46;;;;;;;16.80;15.32;;;;;;;24.32;67.30;97925.88;5103387;28;20212;-55
2021/06/19 06:57:13;;;;;;;11.77;10.88;;;;;;;24.75;67.18;97925.09;5102423;28;20244;-53
2021/06/19 06:59:40;;;;;;;12.55;11.55;;;;;;;24.62;67.52;97930.00;5102829;28;20212;-54
2021/06/19 07:02:07;;;;;;;12.50;11.50;;;;;;;24.59;68.57;97925.81;5098435;28;20244;-54
2021/06/19 07:04:33;;;;;;;14.02;12.93;;;;;;;24.74;68.33;97939.44;5104807;27;20208;-53
2021/06/19 07:07:01;;;;;;;12.15;11.15;;;;;;;24.83;68.03;97932.31;5105414;27;20228;-55
2021/06/19 07:09:28;;;;;;;12.65;11.65;;;;;;;25.10;66.69;97927.84;5107524;27;20216;-55
2021/06/19 07:11:55;;;;;;;12.50;11.38;;;;;;;25.13;66.32;97938.22;5108311;27;20235;-53
2021/06/19 07:14:21;;;;;;;12.73;11.50;;;;;;;25.28;65.85;97938.50;5106354;27;20222;-53
2021/06/19 07:16:48;;;;;;;12.18;11.07;;;;;;;25.41;65.28;97933.56;5106004;27;20243;-52
2021/06/19 07:19:14;;;;;;;12.90;11.90;;;;;;;25.49;65.48;97935.44;5108640;27;20918;-52
2021/06/19 07:21:41;;;;;;;12.60;11.57;;;;;;;25.58;65.56;97940.69;5105800;27;20243;-55
2021/06/19 07:24:09;;;;;;;12.88;11.80;;;;;;;25.77;64.06;97946.78;5106821;27;20212;-50
2021/06/19 07:26:35;;;;;;;13.30;12.20;;;;;;;25.74;64.51;97944.41;5106704;27;20247;-53
2021/06/19 07:29:02;;;;;;;14.75;13.45;;;;;;;25.41;64.68;97949.59;5106104;28;20219;-50
2021/06/19 07:31:29;;;;;;;18.92;17.42;;;;;;;25.41;64.58;97946.09;5105511;27;20235;-48
2021/06/19 07:33:55;;;;;;;13.80;12.60;;;;;;;25.56;64.16;97956.00;5105538;28;20604;-53
2021/06/19 07:36:22;;;;;;;16.10;14.70;;;;;;;25.54;64.00;97947.31;5105530;28;20242;-50
2021/06/19 07:38:49;;;;;;;14.40;13.10;;;;;;;25.51;64.83;97950.34;5106333;27;20235;-51
2021/06/19 07:41:17;;;;;;;17.83;16.30;;;;;;;25.50;63.57;97955.81;5106346;27;20811;-55
2021/06/19 07:43:43;;;;;;;14.10;12.80;;;;;;;25.76;64.16;97955.78;5105542;27;20216;-50
2021/06/19 07:46:10;;;;;;;14.07;12.82;;;;;;;25.87;63.39;97952.81;5105791;27;20257;-55
2021/06/19 07:48:36;;;;;;;16.40;14.80;;;;;;;26.04;62.87;97959.06;5106119;28;20205;-53
2021/06/19 07:51:03;;;;;;;13.75;12.60;;;;;;;26.04;63.45;97952.91;5104707;28;20244;-55
2021/06/19 07:53:30;;;;;;;18.45;16.85;;;;;;;25.94;62.72;97964.56;5105030;27;20224;-55
2021/06/19 07:55:56;;;;;;;14.05;12.85;;;;;;;25.89;62.63;97966.84;5106671;27;20232;-53
2021/06/19 07:58:24;;;;;;;14.27;12.95;;;;;;;26.20;61.70;97958.31;5105428;27;20736;-51
2021/06/19 08:00:51;;;;;;;14.93;13.73;;;;;;;25.94;63.15;97959.22;5105111;27;20246;-55
2021/06/19 08:03:17;;;;;;;16.45;14.95;;;;;;;26.05;63.88;97959.94;5105491;27;20748;-53
2021/06/19 08:05:44;;;;;;;17.00;15.43;;;;;;;25.75;64.72;97954.09;5105248;28;20273;-56
2021/06/19 08:08:10;;;;;;;14.75;13.45;;;;;;;26.41;62.27;97960.50;5106091;27;20208;-56
2021/06/19 08:10:37;;;;;;;15.88;14.48;;;;;;;26.75;61.29;97956.09;5105536;27;20258;-56
2021/06/19 08:13:03;;;;;;;16.73;15.32;;;;;;;26.89;61.22;97956.25;5104787;28;20220;-56
2021/06/19 08:15:33;;;;;;;17.50;15.88;;;;;;;27.08;60.33;97956.91;5104229;27;20251;-56
2021/06/19 08:18:00;;;;;;;18.77;17.17;;;;;;;26.92;60.36;97958.56;5105380;27;20265;-56
2021/06/19 08:20:26;;;;;;;16.70;15.20;;;;;;;27.12;59.13;97955.56;5105592;27;20243;-56
2021/06/19 08:22:53;;;;;;;15.65;14.35;;;;;;;27.31;58.68;97957.03;5104918;27;20227;-56
2021/06/19 08:25:19;;;;;;;16.92;15.35;;;;;;;27.10;60.94;97955.72;5100221;28;20235;-55
2021/06/19 08:27:46;;;;;;;18.17;15.50;;;;;;;27.11;60.05;97952.06;5101595;27;20219;-56
2021/06/19 08:30:13;;;;;;;16.08;14.70;;;;;;;27.32;59.01;97953.38;5100902;27;20236;-55
2021/06/19 08:32:41;;;;;;;16.05;14.55;;;;;;;27.41;59.00;97951.53;5101296;27;20241;-54
2021/06/19 08:35:09;;;;;;;18.10;16.45;;;;;;;27.21;60.38;97951.84;5104089;27;20308;-53
2021/06/19 08:37:35;;;;;;;14.90;13.60;;;;;;;27.31;59.46;97957.03;5103079;27;21046;-56
2021/06/19 08:40:02;;;;;;;17.45;15.95;;;;;;;27.14;59.80;97958.06;5103588;27;20227;-56
2021/06/19 08:42:28;;;;;;;16.05;14.55;;;;;;;27.21;59.42;97956.38;5101271;28;20236;-55
2021/06/19 08:44:57;;;;;;;17.92;16.17;;;;;;;26.95;59.79;97956.59;5101124;28;20204;-56
2021/06/19 08:47:24;;;;;;;14.52;13.23;;;;;;;27.16;60.08;97956.06;5100825;27;20243;-56
2021/06/19 08:49:53;;;;;;;16.98;15.43;;;;;;;27.08;60.08;97947.03;5100565;27;20212;-55
2021/06/19 08:52:20;;;;;;;16.67;15.10;;;;;;;27.07;61.41;97939.16;5100239;27;20254;-53
2021/06/19 08:54:46;;;;;;;13.88;12.40;;;;;;;27.47;60.17;97932.09;5100593;27;20220;-56
2021/06/19 08:57:14;;;;;;;13.43;12.25;;;;;;;27.75;58.82;97932.47;5100249;28;20235;-55
2021/06/19 08:59:47;;;;;;;15.18;13.70;;;;;;;28.82;56.13;97924.66;5100596;27;20270;-56
2021/06/19 09:02:13;;;;;;;13.73;12.45;;;;;;;29.72;53.14;97925.59;5100460;27;20242;-57
2021/06/19 09:04:53;;;;;;;15.27;13.73;;;;;;;30.10;51.94;97922.75;5100673;28;20302;-55
2021/06/19 09:07:35;;;;;;;14.70;13.20;;;;;;;30.55;51.70;97926.16;5100391;27;20239;-56
2021/06/19 09:10:16;;;;;;;13.13;12.02;;;;;;;31.07;49.41;97921.44;5101361;27;20224;-55
2021/06/19 09:12:54;;;;;;;13.30;12.20;;;;;;;31.19;49.37;97911.00;5100301;28;20234;-56
2021/06/19 09:15:21;;;;;;;13.00;11.75;;;;;;;31.48;48.51;97901.84;5095649;27;20211;-56
2021/06/19 09:18:00;;;;;;;15.85;14.32;;;;;;;31.89;47.91;97908.25;5101684;27;20239;-56
2021/06/19 09:20:38;;;;;;;15.57;14.18;;;;;;;31.95;46.96;97910.16;5101337;27;20243;-55
2021/06/19 21:58:15;;;;;;;75.78;25.73;;;;;;;24.55;73.81;97465.03;5074690;27;20413;-80
2021/06/19 22:00:50;;;;;;;68.28;26.15;;;;;;;24.68;78.08;97465.38;5056364;28;20946;-79
2021/06/19 22:03:17;;;;;;;62.25;25.63;;;;;;;24.27;73.60;97467.13;5071305;28;20208;-77
2021/06/19 22:05:44;;;;;;;48.30;23.90;;;;;;;24.27;74.75;97477.78;5070494;28;20237;-77
2021/06/19 22:08:10;;;;;;;43.88;22.48;;;;;;;23.94;73.93;97475.81;5073209;28;20587;-78
2021/06/19 22:10:37;;;;;;;54.45;25.45;;;;;;;23.92;73.60;97475.16;5070908;28;20228;-79
2021/06/19 22:13:04;;;;;;;53.85;24.67;;;;;;;24.01;75.49;97474.19;5068728;28;20266;-76
2021/06/19 22:15:33;;;;;;;88.32;32.70;;;;;;;24.18;72.45;97479.56;5070770;27;20221;-77
2021/06/19 22:17:59;;;;;;;101.65;36.00;;;;;;;24.11;72.94;97490.03;5071480;28;20209;-76
2021/06/19 22:20:26;;;;;;;109.68;79.65;;;;;;;24.00;75.78;97483.16;5070100;28;20241;-77
2021/06/19 22:22:54;;;;;;;175.07;59.20;;;;;;;24.12;72.21;97490.88;5071536;28;20286;-77
2021/06/19 22:25:21;;;;;;;93.63;38.90;;;;;;;24.07;71.48;97491.34;5069887;28;20230;-77
2021/06/19 22:27:48;;;;;;;224.98;131.95;;;;;;;24.05;72.60;97490.69;5071030;28;20287;-77
2021/06/19 22:30:16;;;;;;;256.38;162.48;;;;;;;23.98;72.40;97495.81;5070929;28;20232;-76
2021/06/19 22:32:45;;;;;;;195.60;146.30;;;;;;;23.81;73.06;97499.41;5070660;28;20270;-76
2021/06/19 22:35:14;;;;;;;52.05;23.30;;;;;;;23.84;74.14;97501.75;5071392;28;20221;-77
2021/06/19 22:37:41;;;;;;;77.28;24.83;;;;;;;23.77;72.05;97495.34;5072273;28;20209;-77
2021/06/19 22:40:10;;;;;;;67.13;24.38;;;;;;;23.78;71.77;97499.69;5072566;28;20604;-77
2021/06/19 22:42:37;;;;;;;226.63;157.60;;;;;;;23.72;72.06;97497.66;5071217;28;20253;-76
2021/06/19 22:45:05;;;;;;;253.32;158.13;;;;;;;23.90;73.04;97498.44;5073867;28;20229;-75
2021/06/19 22:47:31;;;;;;;240.38;151.32;;;;;;;23.81;71.31;97494.06;5074885;28;20237;-75
2021/06/19 22:49:59;;;;;;;70.53;32.67;;;;;;;23.76;72.01;97485.69;5076154;28;20229;-76
2021/06/19 22:52:26;;;;;;;141.23;125.82;;;;;;;24.03;70.83;97477.50;5074994;28;20236;-77
2021/06/19 22:54:52;;;;;;;189.88;147.63;;;;;;;23.72;72.54;97468.38;5077328;28;20209;-76
2021/06/19 22:57:21;;;;;;;226.93;158.95;;;;;;;23.65;72.89;97474.34;5074263;28;20232;-75
2021/06/19 22:59:47;;;;;;;222.02;155.93;;;;;;;23.62;72.08;97449.84;5077700;28;20220;-76
2021/06/19 23:02:14;;;;;;;124.45;110.90;;;;;;;23.63;73.01;97439.03;5077085;28;20245;-76
2021/06/19 23:04:41;;;;;;;103.35;92.10;;;;;;;23.60;73.66;97439.38;5073921;28;20220;-75
2021/06/19 23:07:09;;;;;;;69.78;43.38;;;;;;;23.64;73.80;97426.56;5076589;28;20241;-77
2021/06/19 23:09:39;;;;;;;66.32;39.58;;;;;;;23.76;73.90;97421.78;5063941;28;20224;-76
2021/06/19 23:12:06;;;;;;;56.10;24.85;;;;;;;23.37;75.41;97407.13;5061760;28;20249;-76
2021/06/19 23:14:33;;;;;;;155.40;136.82;;;;;;;23.54;77.19;97402.72;5060879;28;20218;-75
2021/06/19 23:17:00;;;;;;;184.60;141.43;;;;;;;23.56;77.35;97395.41;5064313;28;20226;-77
2021/06/19 23:19:26;;;;;;;195.35;152.02;;;;;;;23.45;74.72;97377.91;5062763;28;20213;-75
2021/06/19 23:21:54;;;;;;;196.90;150.45;;;;;;;23.47;81.38;97370.59;5061215;28;20240;-76
2021/06/19 23:24:22;;;;;;;184.18;137.90;;;;;;;23.16;75.91;97362.31;5059491;28;20214;-75
2021/06/19 23:26:49;;;;;;;179.90;138.35;;;;;;;23.10;73.90;97362.91;5061502;28;20344;-75
2021/06/19 23:29:15;;;;;;;180.23;139.50;;;;;;;23.04;73.44;97379.50;5064234;28;20210;-76
2021/06/19 23:31:42;;;;;;;211.95;148.93;;;;;;;23.12;73.92;97392.84;5060784;28;20746;-76
2021/06/19 23:34:08;;;;;;;174.27;142.23;;;;;;;23.08;72.93;97392.31;5061093;28;20214;-76
2021/06/19 23:36:35;;;;;;;213.88;147.18;;;;;;;23.17;71.18;97401.19;5054722;28;20241;-75
2021/06/19 23:39:02;;;;;;;235.30;146.88;;;;;;;23.16;70.54;97404.00;5060565;28;20214;-75
2021/06/19 23:41:30;;;;;;;260.10;152.57;;;;;;;23.35;69.54;97424.25;5059270;28;20260;-75
2021/06/19 23:43:56;;;;;;;251.90;149.05;;;;;;;23.42;70.28;97410.16;5059310;28;20206;-75
2021/06/19 23:46:23;;;;;;;263.35;148.93;;;;;;;23.39;73.16;97410.47;5056182;28;20755;-76
2021/06/19 23:48:49;;;;;;;109.28;93.07;;;;;;;23.25;71.03;97411.03;5058019;28;20229;-75
2021/06/19 23:51:17;;;;;;;189.70;140.98;;;;;;;23.29;73.03;97413.25;5059973;28;20242;-76
2021/06/19 23:53:43;;;;;;;65.95;24.92;;;;;;;23.20;71.08;97403.53;5056829;28;20210;-76
2021/06/19 23:56:10;;;;;;;55.63;28.50;;;;;;;23.14;70.71;97395.34;5057603;28;20237;-76
2021/06/19 23:58:38;;;;;;;143.00;124.18;;;;;;;23.09;71.85;97398.50;5060947;28;20197;-75
